Time;durP1;ratioP1;P1;durP2;ratioP2;P2;SDS_P1;SDS_P2;PMS_P1;PMS_P2;Temp;Humidity;BMP_temperature;BMP_pressure;BME280_temperature;BME280_humidity;BME280_pressure;Samples;Min_cycle;Max_cycle;Signal;HPM_P1;HPM_P2
2021/07/11 00:03:05;;;;;;;9.25;5.18;;;29.20;31.30;;;;;;20750936;28;20435;-65
2021/07/11 00:13:07;;;;;;;8.23;5.15;;;28.90;31.60;;;;;;20750385;28;20049;-66
2021/07/11 00:23:09;;;;;;;8.45;5.35;;;28.50;31.90;;;;;;20749496;28;20066;-71
2021/07/11 00:33:13;;;;;;;8.18;5.13;;;28.20;31.80;;;;;;20751758;28;20050;-65
2021/07/11 00:43:16;;;;;;;7.45;4.90;;;28.00;32.40;;;;;;20748457;28;20050;-74
2021/07/11 00:53:18;;;;;;;7.00;4.22;;;27.70;32.50;;;;;;20749381;28;20525;-67
2021/07/11 01:03:27;;;;;;;5.28;3.58;;;27.60;32.50;;;;;;20749220;28;20483;-68
2021/07/11 01:13:29;;;;;;;7.65;3.85;;;27.40;32.70;;;;;;20748375;28;20491;-64
2021/07/11 01:23:54;;;;;;;5.97;3.97;;;27.10;33.50;;;;;;20746645;28;20141;-65
2021/07/11 01:33:58;;;;;;;5.10;4.22;;;26.80;33.90;;;;;;20746318;28;20058;-61
2021/07/11 01:44:05;;;;;;;7.43;4.30;;;26.50;34.40;;;;;;20761270;28;20140;-70
2021/07/11 01:54:16;;;;;;;5.50;4.13;;;26.30;34.30;;;;;;20762449;28;20050;-62
2021/07/11 02:04:29;;;;;;;6.60;4.28;;;26.10;34.40;;;;;;20775403;28;20050;-68
2021/07/11 02:14:53;;;;;;;9.90;4.43;;;26.00;34.70;;;;;;20771527;28;20068;-64
2021/07/11 02:25:11;;;;;;;4.43;3.85;;;25.90;35.00;;;;;;20758583;28;20068;-65
2021/07/11 02:35:44;;;;;;;7.03;4.60;;;25.70;35.20;;;;;;20758434;28;20061;-64
2021/07/11 02:45:52;;;;;;;5.32;3.35;;;25.70;34.80;;;;;;20586979;28;20051;-63
2021/07/11 02:56:07;;;;;;;5.47;3.67;;;25.60;35.20;;;;;;20586715;28;20051;-63
2021/07/11 03:06:13;;;;;;;4.90;3.35;;;25.50;35.80;;;;;;20584013;28;20085;-73
2021/07/11 03:16:31;;;;;;;5.30;3.53;;;25.40;36.10;;;;;;20628443;28;20454;-74
2021/07/11 03:26:54;;;;;;;7.38;3.97;;;25.40;36.50;;;;;;20753804;28;20108;-64
2021/07/11 03:37:08;;;;;;;9.48;3.70;;;25.20;36.50;;;;;;20752879;28;20077;-73
2021/07/11 03:47:42;;;;;;;6.90;3.75;;;25.10;36.50;;;;;;20752309;28;20054;-62
2021/07/11 03:57:53;;;;;;;7.25;3.30;;;25.10;36.50;;;;;;20750897;28;20053;-64
2021/07/11 04:08:03;;;;;;;5.40;3.97;;;24.90;36.60;;;;;;20752921;28;20050;-66
2021/07/11 04:18:20;;;;;;;4.18;3.40;;;24.70;36.70;;;;;;20751436;28;20096;-63
2021/07/11 04:28:32;;;;;;;6.90;3.20;;;24.70;37.00;;;;;;20775756;28;20486;-70
2021/07/11 04:38:47;;;;;;;6.35;3.25;;;24.50;37.50;;;;;;20750441;28;20046;-74
2021/07/11 04:49:09;;;;;;;5.30;2.97;;;24.40;37.70;;;;;;20751083;28;20049;-72
2021/07/11 04:59:20;;;;;;;5.53;3.28;;;24.30;37.90;;;;;;20748526;28;20087;-64
2021/07/11 05:09:28;;;;;;;4.25;3.25;;;24.30;38.00;;;;;;20748756;28;20046;-66
2021/07/11 05:19:32;;;;;;;5.88;3.42;;;24.20;38.10;;;;;;20763661;28;20136;-63
2021/07/11 05:29:35;;;;;;;5.18;3.33;;;24.40;37.70;;;;;;20761725;28;20414;-71
2021/07/11 05:39:39;;;;;;;4.75;2.85;;;24.70;35.90;;;;;;20762487;28;20439;-66
2021/07/11 05:49:43;;;;;;;4.55;3.20;;;25.00;35.00;;;;;;20761209;28;20045;-72
2021/07/11 05:59:46;;;;;;;5.88;3.45;;;25.20;34.50;;;;;;20759342;28;20053;-64
2021/07/11 06:09:50;;;;;;;6.47;3.50;;;25.30;35.70;;;;;;20759825;28;20042;-73
2021/07/11 06:19:55;;;;;;;4.13;3.15;;;25.10;36.50;;;;;;20757672;28;20061;-72
2021/07/11 06:29:59;;;;;;;3.33;2.85;;;25.10;36.30;;;;;;20756365;28;20129;-70
2021/07/11 06:40:02;;;;;;;5.03;2.75;;;25.30;35.50;;;;;;20757169;28;20054;-71
2021/07/11 06:50:09;;;;;;;4.85;2.72;;;25.70;34.00;;;;;;20756451;28;20057;-70
2021/07/11 07:00:15;;;;;;;5.20;2.85;;;26.10;33.20;;;;;;20756361;28;20474;-64
2021/07/11 07:10:19;;;;;;;4.63;2.95;;;26.50;32.70;;;;;;20756462;28;20419;-73
2021/07/11 07:20:22;;;;;;;5.80;2.40;;;26.90;32.30;;;;;;20756040;28;20123;-72
2021/07/11 07:30:26;;;;;;;6.22;3.13;;;27.40;31.10;;;;;;20754719;28;20061;-65
2021/07/11 07:40:28;;;;;;;4.60;2.90;;;27.80;30.70;;;;;;20754476;28;20046;-63
2021/07/11 07:50:30;;;;;;;5.00;3.00;;;28.20;30.50;;;;;;20754497;28;20533;-65
2021/07/11 08:00:32;;;;;;;6.80;2.80;;;28.90;30.00;;;;;;20756317;28;20053;-64
2021/07/11 08:10:34;;;;;;;4.13;2.83;;;29.30;29.30;;;;;;20749874;28;20089;-74
2021/07/11 08:20:37;;;;;;;6.05;2.28;;;29.50;28.50;;;;;;20750266;28;20057;-66
2021/07/11 08:30:40;;;;;;;4.65;2.55;;;29.50;28.40;;;;;;20760463;28;20058;-70
2021/07/11 08:40:44;;;;;;;7.82;3.05;;;29.30;28.70;;;;;;20748242;28;20092;-65
2021/07/11 08:50:46;;;;;;;6.10;2.88;;;29.50;28.90;;;;;;20766745;28;20053;-65
2021/07/11 09:00:48;;;;;;;4.45;2.60;;;29.60;29.50;;;;;;20774405;28;20069;-68
2021/07/11 09:10:57;;;;;;;6.85;3.10;;;30.10;28.70;;;;;;20774891;28;20054;-69
2021/07/11 09:21:00;;;;;;;9.35;2.83;;;30.70;28.60;;;;;;20774291;28;20503;-71
2021/07/11 09:31:05;;;;;;;4.95;2.53;;;31.10;28.30;;;;;;20776901;28;20046;-65
2021/07/11 09:41:35;;;;;;;11.05;3.97;;;31.40;28.00;;;;;;20775520;28;20102;-69
2021/07/11 09:51:37;;;;;;;5.93;3.22;;;31.70;27.80;;;;;;20770289;28;20133;-68
2021/07/11 10:01:41;;;;;;;6.13;2.90;;;31.70;28.10;;;;;;20763198;28;20108;-65
2021/07/11 10:11:43;;;;;;;8.35;3.00;;;31.70;28.30;;;;;;20759950;28;20084;-65
2021/07/11 10:21:47;;;;;;;7.72;2.92;;;32.20;27.50;;;;;;20760399;28;20521;-66
2021/07/11 10:31:51;;;;;;;4.80;2.83;;;32.60;27.20;;;;;;20759852;28;20046;-63
2021/07/11 10:41:53;;;;;;;7.22;3.05;;;33.00;26.50;;;;;;20757928;28;20053;-67
2021/07/11 10:52:24;;;;;;;4.90;3.15;;;33.10;26.30;;;;;;20758358;28;20550;-64
2021/07/11 11:02:29;;;;;;;6.65;2.97;;;33.30;26.00;;;;;;20755118;28;20050;-64
2021/07/11 11:12:31;;;;;;;4.93;2.67;;;33.60;26.10;;;;;;20755107;28;20054;-66
2021/07/11 11:22:34;;;;;;;6.78;3.17;;;34.00;25.60;;;;;;20753855;28;20057;-67
2021/07/11 11:32:36;;;;;;;7.28;3.33;;;34.30;24.70;;;;;;20753994;28;20391;-63
2021/07/11 11:42:48;;;;;;;8.25;3.05;;;34.40;24.40;;;;;;20751956;28;20050;-64
2021/07/11 11:53:01;;;;;;;11.43;4.55;;;34.50;24.80;;;;;;20768283;28;20046;-64
2021/07/11 12:03:07;;;;;;;12.85;4.55;;;35.00;23.50;;;;;;20750735;28;20100;-65
2021/07/11 12:13:09;;;;;;;8.20;4.15;;;35.30;23.40;;;;;;20751139;28;20512;-64
2021/07/11 12:23:12;;;;;;;10.07;3.70;;;35.60;23.40;;;;;;20749086;28;20510;-64
2021/07/11 12:33:26;;;;;;;15.88;4.07;;;35.90;23.00;;;;;;20752245;28;20049;-66
2021/07/11 12:43:30;;;;;;;13.50;5.72;;;36.30;23.00;;;;;;20750363;28;20060;-64
2021/07/11 12:53:35;;;;;;;13.23;4.60;;;36.50;22.20;;;;;;20748879;28;20553;-69
2021/07/11 13:03:36;;;;;;;18.75;5.50;;;37.10;21.40;;;;;;20749682;28;20453;-65
2021/07/11 13:13:38;;;;;;;19.75;6.03;;;37.20;21.70;;;;;;20747645;28;20144;-64
2021/07/11 13:23:39;;;;;;;29.30;8.60;;;37.50;20.50;;;;;;20747677;28;20068;-67
2021/07/11 13:33:41;;;;;;;28.13;7.95;;;37.70;19.70;;;;;;20753848;28;20093;-66
2021/07/11 13:43:43;;;;;;;28.25;6.63;;;37.90;19.50;;;;;;20761940;28;20053;-63
2021/07/11 13:53:44;;;;;;;31.15;8.07;;;38.10;19.00;;;;;;20760489;28;20078;-63
2021/07/11 14:03:46;;;;;;;37.03;8.85;;;38.20;18.30;;;;;;20760099;28;20042;-63
2021/07/11 14:13:47;;;;;;;35.97;8.38;;;38.50;18.40;;;;;;20758599;28;20050;-65
2021/07/11 14:23:49;;;;;;;34.38;8.45;;;38.50;18.30;;;;;;20756442;28;20093;-66
2021/07/11 14:33:51;;;;;;;39.75;10.13;;;38.60;18.20;;;;;;20758401;28;20406;-64
2021/07/11 14:43:52;;;;;;;39.50;9.90;;;38.60;18.00;;;;;;20756015;28;20092;-66
2021/07/11 14:53:53;;;;;;;42.28;10.50;;;38.60;17.90;;;;;;20756183;28;20054;-64
2021/07/11 15:03:55;;;;;;;42.70;11.43;;;38.50;18.20;;;;;;20754880;28;20058;-63
2021/07/11 15:13:56;;;;;;;35.30;10.38;;;38.40;18.00;;;;;;20752346;28;20488;-63
2021/07/11 15:23:58;;;;;;;48.25;12.27;;;38.60;17.70;;;;;;20753593;28;20093;-73
2021/07/11 15:33:59;;;;;;;76.47;17.42;;;38.40;18.00;;;;;;20752865;28;20545;-63
2021/07/11 15:44:01;;;;;;;84.90;17.92;;;38.40;17.40;;;;;;20750498;28;20046;-62
2021/07/11 15:54:02;;;;;;;68.40;15.52;;;38.30;17.40;;;;;;20751112;28;20478;-72
2021/07/11 16:04:04;;;;;;;78.53;16.83;;;38.30;17.80;;;;;;20750840;28;20506;-65
2021/07/11 16:14:08;;;;;;;75.05;17.63;;;38.30;18.00;;;;;;20750563;28;20465;-65
2021/07/11 16:24:10;;;;;;;79.38;16.65;;;38.10;18.40;;;;;;20756854;28;20073;-63
2021/07/11 16:34:11;;;;;;;64.72;15.18;;;38.10;18.10;;;;;;20754112;28;20487;-68
2021/07/11 16:44:15;;;;;;;66.45;15.95;;;37.80;18.60;;;;;;20756047;28;20490;-65
2021/07/11 16:54:16;;;;;;;61.55;13.45;;;37.50;19.10;;;;;;20749571;28;20050;-68
2021/07/11 17:04:18;;;;;;;54.67;13.48;;;37.40;19.50;;;;;;20747971;28;20050;-65
2021/07/11 17:14:20;;;;;;;46.10;13.32;;;37.30;20.10;;;;;;20762308;28;20088;-64
2021/07/11 17:24:21;;;;;;;57.85;13.10;;;37.20;20.40;;;;;;20762734;28;20058;-63
2021/07/11 17:34:22;;;;;;;42.05;12.13;;;37.20;20.80;;;;;;20761573;28;20136;-63
2021/07/11 17:44:24;;;;;;;37.58;11.15;;;37.10;21.30;;;;;;20760690;28;20050;-70
2021/07/11 17:54:25;;;;;;;53.72;13.48;;;36.90;21.50;;;;;;20759489;28;20052;-67
2021/07/11 18:04:27;;;;;;;53.97;14.98;;;36.90;21.40;;;;;;20759186;28;20057;-63
2021/07/11 18:14:28;;;;;;;53.28;14.05;;;36.80;20.90;;;;;;20760180;28;20081;-70
2021/07/11 18:24:30;;;;;;;53.35;14.32;;;36.70;21.30;;;;;;20757162;28;20096;-62
2021/07/11 18:34:33;;;;;;;64.63;14.45;;;36.60;21.20;;;;;;20758654;28;20076;-65
2021/07/11 18:44:35;;;;;;;71.22;15.73;;;36.40;21.60;;;;;;20757223;28;20060;-66
2021/07/11 18:54:37;;;;;;;64.38;15.40;;;36.20;21.40;;;;;;20757617;28;20042;-64
2021/07/11 19:04:38;;;;;;;64.55;14.63;;;36.00;21.50;;;;;;20756773;28;20054;-62
2021/07/11 19:14:40;;;;;;;78.03;16.17;;;35.80;21.90;;;;;;20754384;28;20450;-65
2021/07/11 19:24:42;;;;;;;53.90;13.70;;;35.50;22.10;;;;;;20753340;28;20058;-63
2021/07/11 19:34:44;;;;;;;56.28;14.38;;;35.30;22.40;;;;;;20752053;28;20125;-63
2021/07/11 19:44:46;;;;;;;61.70;13.13;;;35.10;22.80;;;;;;20752335;28;20050;-63
2021/07/11 19:54:48;;;;;;;71.22;14.55;;;35.00;23.00;;;;;;20752054;28;20143;-71
2021/07/11 20:04:53;;;;;;;59.47;14.50;;;34.70;23.30;;;;;;20750744;28;20046;-71
2021/07/11 20:14:54;;;;;;;68.40;15.57;;;34.50;23.50;;;;;;20750804;28;20053;-62
2021/07/11 20:24:56;;;;;;;58.33;16.42;;;34.40;23.50;;;;;;20750583;28;20054;-62
2021/07/11 20:34:57;;;;;;;45.58;17.95;;;34.10;24.00;;;;;;20749127;28;20050;-61
2021/07/11 20:45:01;;;;;;;30.95;8.48;;;34.00;25.10;;;;;;20748584;28;20418;-64
2021/07/11 20:55:04;;;;;;;27.55;7.65;;;33.80;25.60;;;;;;20750808;28;20494;-67
2021/07/11 21:05:07;;;;;;;26.73;7.82;;;33.60;25.90;;;;;;20746808;28;20057;-68
2021/07/11 21:15:09;;;;;;;24.15;8.18;;;33.40;26.20;;;;;;20748186;28;20057;-63
2021/07/11 21:25:12;;;;;;;21.15;7.25;;;33.10;26.60;;;;;;20748160;28;20058;-65
2021/07/11 21:35:15;;;;;;;29.52;8.60;;;33.00;26.90;;;;;;20747029;28;20049;-72
2021/07/11 21:45:19;;;;;;;21.20;6.25;;;32.80;27.30;;;;;;20746625;28;20058;-65
2021/07/11 21:55:21;;;;;;;20.98;6.93;;;32.60;27.40;;;;;;20752285;28;20078;-70
2021/07/11 22:05:23;;;;;;;19.90;6.25;;;32.50;27.80;;;;;;20762922;28;20453;-69
2021/07/11 22:15:24;;;;;;;23.15;7.45;;;32.20;28.50;;;;;;20765734;28;20053;-64
2021/07/11 22:25:27;;;;;;;12.90;5.53;;;32.00;29.00;;;;;;20762447;28;20057;-66
2021/07/11 22:35:29;;;;;;;12.43;5.32;;;31.80;29.40;;;;;;20761685;28;20064;-66
2021/07/11 22:45:31;;;;;;;13.82;6.30;;;31.60;29.70;;;;;;20759865;28;20057;-69
2021/07/11 22:55:33;;;;;;;13.52;4.75;;;31.40;29.80;;;;;;20759375;28;20483;-65
2021/07/11 23:05:35;;;;;;;10.10;4.38;;;31.20;30.00;;;;;;20755897;28;20053;-71
2021/07/11 23:15:37;;;;;;;9.00;4.95;;;31.10;30.00;;;;;;20757865;28;20050;-70
2021/07/11 23:25:40;;;;;;;8.80;3.88;;;30.90;30.00;;;;;;20761151;28;20561;-68
2021/07/11 23:35:42;;;;;;;9.05;4.47;;;30.70;30.00;;;;;;20760503;28;20145;-66
2021/07/11 23:45:43;;;;;;;6.28;4.00;;;30.60;30.20;;;;;;20755825;28;20181;-63
2021/07/11 23:55:45;;;;;;;9.00;4.10;;;30.40;30.20;;;;;;20757773;28;20466;-62
